createdAt,value
2018-11-14T00:00:25.627Z,18.37
2018-11-14T00:02:54.482Z,16.03
2018-11-14T00:05:23.377Z,17.70
2018-11-14T00:07:52.143Z,24.13
2018-11-14T00:10:21.020Z,18.77
2018-11-14T00:12:50.141Z,17.63
2018-11-14T00:15:21.178Z,20.67
2018-11-14T00:17:50.636Z,17.13
2018-11-14T00:20:19.547Z,18.53
2018-11-14T00:22:49.327Z,20.40
2018-11-14T00:25:18.590Z,18.07
2018-11-14T00:27:47.711Z,20.93
2018-11-14T00:30:19.963Z,18.13
2018-11-14T00:32:48.815Z,20.70
2018-11-14T00:35:17.641Z,22.17
2018-11-14T00:37:46.903Z,16.20
2018-11-14T00:40:16.664Z,21.47
2018-11-14T00:42:46.214Z,19.43
2018-11-14T00:45:17.387Z,26.70
2018-11-14T00:47:47.237Z,18.93
2018-11-14T00:50:16.949Z,18.20
2018-11-14T00:52:46.622Z,23.80
2018-11-14T00:55:23.649Z,20.90
2018-11-14T00:57:53.618Z,20.50
2018-11-14T01:00:23.620Z,27.13
2018-11-14T01:02:52.559Z,20.40
2018-11-14T01:05:21.548Z,26.67
2018-11-14T01:07:50.398Z,23.13
2018-11-14T01:10:20.528Z,24.93
2018-11-14T01:12:49.897Z,23.47
2018-11-14T01:15:19.930Z,24.93
2018-11-14T01:17:48.800Z,20.93
2018-11-14T01:20:19.844Z,23.10
2018-11-14T01:22:48.885Z,21.60
2018-11-14T01:25:18.752Z,22.50
2018-11-14T01:27:47.905Z,29.73
2018-11-14T01:30:20.487Z,26.00
2018-11-14T01:32:49.751Z,23.03
2018-11-14T01:35:18.964Z,24.37
2018-11-14T01:37:48.201Z,19.80
2018-11-14T01:40:20.991Z,29.50
2018-11-14T01:42:51.058Z,29.43
2018-11-14T01:45:20.059Z,21.60
2018-11-14T01:47:49.404Z,22.63
2018-11-14T01:50:18.360Z,23.93
2018-11-14T01:52:47.189Z,33.80
2018-11-14T01:55:17.152Z,27.60
2018-11-14T01:57:45.908Z,25.40
2018-11-14T02:00:16.883Z,30.10
2018-11-14T02:02:46.026Z,21.63
2018-11-14T02:05:14.932Z,23.87
2018-11-14T02:07:43.731Z,28.10
2018-11-14T02:10:14.427Z,31.53
2018-11-14T02:12:43.810Z,26.27
2018-11-14T02:15:14.727Z,37.53
2018-11-14T02:17:43.505Z,31.73
2018-11-14T02:20:12.855Z,26.73
2018-11-14T02:22:42.311Z,21.47
2018-11-14T02:25:12.097Z,37.40
2018-11-14T02:27:41.226Z,30.97
2018-11-14T02:30:24.098Z,24.23
2018-11-14T02:32:53.041Z,25.17
2018-11-14T02:35:21.895Z,26.87
2018-11-14T02:37:50.716Z,31.30
2018-11-14T02:40:21.411Z,50.50
2018-11-14T02:42:50.487Z,29.57
2018-11-14T02:45:19.759Z,26.10
2018-11-14T02:47:48.605Z,20.67
2018-11-14T02:50:18.188Z,27.90
2018-11-14T02:52:47.158Z,40.70
2018-11-14T02:55:17.004Z,35.33
2018-11-14T02:57:46.308Z,26.10
2018-11-14T03:00:17.658Z,42.93
2018-11-14T03:02:46.457Z,33.40
2018-11-14T03:05:15.349Z,27.90
2018-11-14T03:07:44.248Z,31.57
2018-11-14T03:10:15.902Z,31.07
2018-11-14T03:12:45.072Z,28.07
2018-11-14T03:15:16.176Z,35.00
2018-11-14T03:17:45.351Z,52.80
2018-11-14T03:20:16.356Z,39.07
2018-11-14T03:22:45.242Z,32.07
2018-11-14T03:25:14.900Z,31.63
2018-11-14T03:27:44.191Z,27.27
2018-11-14T03:30:14.856Z,31.53
2018-11-14T03:32:44.292Z,41.73
2018-11-14T03:35:13.852Z,39.37
2018-11-14T03:37:42.664Z,30.83
2018-11-14T03:40:13.632Z,32.47
2018-11-14T03:42:42.824Z,28.03
2018-11-14T03:45:12.865Z,34.50
2018-11-14T03:47:42.371Z,34.20
2018-11-14T03:50:11.850Z,30.83
2018-11-14T03:52:40.659Z,28.63
2018-11-14T03:55:09.577Z,34.70
2018-11-14T03:57:38.484Z,37.10
2018-11-14T04:00:10.553Z,27.33
2018-11-14T04:02:39.472Z,35.23
2018-11-14T04:05:08.818Z,31.87
2018-11-14T04:07:37.663Z,32.53
2018-11-14T04:10:07.792Z,38.00
2018-11-14T04:12:36.790Z,35.03
2018-11-14T04:15:06.532Z,24.53
2018-11-14T04:17:35.874Z,44.87
2018-11-14T04:20:04.941Z,31.63
2018-11-14T04:22:33.760Z,35.93
2018-11-14T04:25:02.616Z,36.33
2018-11-14T04:27:31.458Z,35.03
2018-11-14T04:30:00.348Z,36.13
2018-11-14T04:32:29.516Z,39.47
2018-11-14T04:34:58.757Z,35.40
2018-11-14T04:37:27.622Z,35.27
2018-11-14T04:39:56.655Z,46.53
2018-11-14T04:42:25.539Z,30.00
2018-11-14T04:44:54.407Z,35.00
2018-11-14T04:47:23.480Z,33.33
2018-11-14T04:49:52.329Z,43.70
2018-11-14T04:52:21.414Z,52.03
2018-11-14T04:54:50.263Z,34.43
2018-11-14T04:57:19.164Z,34.30
2018-11-14T04:59:48.050Z,43.43
2018-11-14T05:02:16.926Z,33.33
2018-11-14T05:04:45.694Z,35.10
2018-11-14T05:07:14.805Z,39.57
2018-11-14T05:09:43.662Z,32.90
2018-11-14T05:12:12.572Z,32.40
2018-11-14T05:14:41.701Z,32.47
2018-11-14T05:17:10.478Z,36.77
2018-11-14T05:19:39.289Z,33.17
2018-11-14T05:22:08.172Z,33.20
2018-11-14T05:24:37.407Z,33.87
2018-11-14T05:27:06.513Z,38.43
2018-11-14T05:29:36.297Z,34.40
2018-11-14T05:32:06.033Z,29.77
2018-11-14T05:34:34.852Z,31.60
2018-11-14T05:37:03.701Z,36.93
2018-11-14T05:39:32.870Z,36.83
2018-11-14T05:42:01.740Z,43.87
2018-11-14T05:44:30.667Z,41.43
2018-11-14T05:46:59.487Z,32.07
2018-11-14T05:49:28.721Z,35.93
2018-11-14T05:51:57.512Z,34.30
2018-11-14T05:54:26.343Z,35.97
2018-11-14T05:56:55.169Z,30.50
2018-11-14T05:59:24.629Z,45.53
2018-11-14T06:01:53.426Z,34.43
2018-11-14T06:04:22.240Z,36.03
2018-11-14T06:06:51.077Z,36.83
2018-11-14T06:09:20.317Z,32.20
2018-11-14T06:11:49.243Z,41.17
2018-11-14T06:14:18.230Z,43.97
2018-11-14T06:16:47.070Z,37.17
2018-11-14T06:19:16.008Z,43.47
2018-11-14T06:21:45.142Z,34.40
2018-11-14T06:24:14.013Z,39.37
2018-11-14T06:26:42.881Z,37.13
2018-11-14T06:29:11.789Z,39.83
2018-11-14T06:31:40.600Z,38.00
2018-11-14T06:34:09.421Z,33.63
2018-11-14T06:36:38.197Z,34.93
2018-11-14T06:39:09.862Z,52.70
2018-11-14T06:41:38.921Z,27.37
2018-11-14T06:44:09.288Z,40.10
2018-11-14T06:46:38.378Z,41.37
2018-11-14T06:49:07.228Z,33.17
2018-11-14T06:51:36.031Z,43.37
2018-11-14T06:54:04.939Z,35.87
2018-11-14T06:56:33.731Z,40.53
2018-11-14T06:59:02.675Z,42.57
2018-11-14T07:01:31.423Z,37.00
2018-11-14T07:04:00.237Z,51.40
2018-11-14T07:06:29.036Z,36.73
2018-11-14T07:08:57.902Z,50.23
2018-11-14T07:11:27.206Z,36.57
2018-11-14T07:13:56.499Z,37.20
2018-11-14T07:16:25.393Z,49.13
2018-11-14T07:18:54.704Z,39.63
2018-11-14T07:21:23.609Z,42.60
2018-11-14T07:23:52.614Z,35.47
2018-11-14T07:26:21.448Z,47.70
2018-11-14T07:28:50.617Z,31.37
2018-11-14T07:31:19.396Z,37.43
2018-11-14T07:33:48.241Z,36.33
2018-11-14T07:36:16.994Z,35.13
2018-11-14T07:38:46.945Z,38.10
2018-11-14T07:41:18.356Z,43.83
2018-11-14T07:43:47.611Z,49.80
2018-11-14T07:46:17.054Z,45.03
2018-11-14T07:48:47.017Z,40.53
2018-11-14T07:51:15.850Z,42.20
2018-11-14T07:53:44.686Z,42.27
2018-11-14T07:56:14.267Z,29.17
2018-11-14T07:58:43.073Z,38.23
2018-11-14T08:01:11.918Z,44.30
2018-11-14T08:03:40.782Z,52.07
2018-11-14T08:06:09.681Z,38.93
2018-11-14T08:08:38.593Z,30.83
2018-11-14T08:11:08.240Z,47.10
2018-11-14T08:13:38.782Z,43.60
2018-11-14T08:16:07.722Z,34.70
2018-11-14T08:18:36.972Z,40.73
2018-11-14T08:21:06.550Z,36.67
2018-11-14T08:23:35.720Z,39.10
2018-11-14T08:26:04.527Z,43.17
2018-11-14T08:28:33.338Z,34.20
2018-11-14T08:31:02.627Z,43.63
2018-11-14T08:33:31.449Z,50.30
2018-11-14T08:36:00.494Z,36.63
2018-11-14T08:38:29.258Z,43.83
2018-11-14T08:40:58.091Z,46.27
2018-11-14T08:43:26.906Z,57.17
2018-11-14T08:45:55.746Z,38.33
2018-11-14T08:48:24.607Z,37.37
2018-11-14T08:50:53.441Z,39.43
2018-11-14T08:53:22.391Z,39.23
2018-11-14T08:55:51.253Z,36.53
2018-11-14T08:58:20.095Z,39.27
2018-11-14T09:00:48.900Z,46.10
2018-11-14T09:03:17.990Z,35.00
2018-11-14T09:05:46.926Z,46.67
2018-11-14T09:08:15.966Z,31.70
2018-11-14T09:10:45.246Z,35.27
2018-11-14T09:13:15.807Z,33.47
2018-11-14T09:15:44.657Z,35.87
2018-11-14T09:18:13.525Z,44.30
2018-11-14T09:20:42.592Z,36.40
2018-11-14T09:23:11.884Z,38.37
2018-11-14T09:25:40.673Z,34.53
2018-11-14T09:28:09.793Z,37.93
2018-11-14T09:30:38.703Z,56.43
2018-11-14T09:33:07.564Z,35.10
2018-11-14T09:35:37.010Z,33.20
2018-11-14T09:38:06.065Z,36.23
2018-11-14T09:40:35.246Z,33.10
2018-11-14T09:43:04.163Z,37.27
2018-11-14T09:45:33.276Z,32.47
2018-11-14T09:48:02.431Z,39.97
2018-11-14T09:50:32.370Z,34.73
2018-11-14T09:53:04.356Z,39.17
2018-11-14T09:55:33.255Z,33.10
2018-11-14T09:58:02.102Z,48.93
2018-11-14T10:00:33.725Z,45.00
2018-11-14T10:03:06.077Z,36.03
2018-11-14T10:05:34.978Z,35.33
2018-11-14T10:08:03.836Z,33.47
2018-11-14T10:10:32.661Z,31.67
2018-11-14T10:13:01.510Z,34.33
2018-11-14T10:15:30.532Z,29.00
2018-11-14T10:17:59.415Z,46.97
2018-11-14T10:20:28.589Z,35.23
2018-11-14T10:22:57.364Z,43.47
2018-11-14T10:25:26.463Z,33.43
2018-11-14T10:27:55.595Z,41.87
2018-11-14T10:30:26.707Z,27.67
2018-11-14T10:32:55.629Z,39.00
2018-11-14T10:35:24.813Z,41.90
2018-11-14T10:37:53.927Z,37.63
2018-11-14T10:40:25.140Z,35.17
2018-11-14T10:42:54.054Z,34.40
2018-11-14T10:45:24.081Z,40.97
2018-11-14T10:47:52.949Z,39.17
2018-11-14T10:50:23.064Z,40.50
2018-11-14T10:52:51.910Z,35.47
2018-11-14T10:55:21.445Z,41.67
2018-11-14T10:57:50.351Z,42.07
2018-11-14T11:00:27.397Z,31.60
2018-11-14T11:03:01.579Z,40.40
2018-11-14T11:05:35.501Z,34.03
2018-11-14T11:08:09.811Z,37.37
2018-11-14T11:10:43.814Z,42.50
2018-11-14T11:13:18.881Z,49.33
2018-11-14T11:15:53.039Z,37.53
2018-11-14T11:18:25.812Z,30.90
2018-11-14T11:20:54.815Z,31.50
2018-11-14T11:23:23.926Z,51.33
2018-11-14T11:25:52.877Z,33.13
2018-11-14T11:28:22.015Z,39.10
2018-11-14T11:30:50.995Z,33.07
2018-11-14T11:33:19.802Z,37.90
2018-11-14T11:35:48.697Z,31.13
2018-11-14T11:38:17.721Z,54.63
2018-11-14T11:40:46.523Z,39.53
2018-11-14T11:43:15.511Z,39.80
2018-11-14T11:45:44.681Z,41.07
2018-11-14T11:48:13.529Z,30.73
2018-11-14T11:50:42.440Z,23.90
2018-11-14T11:53:11.296Z,34.60
2018-11-14T11:55:40.215Z,32.70
2018-11-14T11:58:09.080Z,33.00
2018-11-14T12:00:38.251Z,30.77
2018-11-14T12:03:06.904Z,43.60
2018-11-14T12:05:35.674Z,27.33
2018-11-14T12:08:04.545Z,30.40
2018-11-14T12:10:33.342Z,36.13
2018-11-14T12:13:02.824Z,40.40
2018-11-14T12:15:31.645Z,28.53
2018-11-14T12:18:00.545Z,45.13
2018-11-14T12:20:29.411Z,31.83
2018-11-14T12:22:58.230Z,33.47
2018-11-14T12:25:27.168Z,34.57
2018-11-14T12:27:56.111Z,35.03
2018-11-14T12:30:25.320Z,39.40
2018-11-14T12:32:54.150Z,43.93
2018-11-14T12:35:23.065Z,35.80
2018-11-14T12:37:52.125Z,32.23
2018-11-14T12:40:21.326Z,28.50
2018-11-14T12:42:50.216Z,28.03
2018-11-14T12:45:19.060Z,28.90
2018-11-14T12:47:47.883Z,26.17
2018-11-14T12:50:16.734Z,34.47
2018-11-14T12:52:45.539Z,38.30
2018-11-14T12:55:16.334Z,28.33
2018-11-14T12:57:45.140Z,38.20
2018-11-14T13:00:17.375Z,36.73
2018-11-14T13:02:46.192Z,26.90
2018-11-14T13:05:15.639Z,28.00
2018-11-14T13:07:45.097Z,28.20
2018-11-14T13:10:16.229Z,29.93
2018-11-14T13:12:46.621Z,30.67
2018-11-14T13:15:16.372Z,37.20
2018-11-14T13:17:45.400Z,26.27
2018-11-14T13:20:18.406Z,30.17
2018-11-14T13:22:47.266Z,32.27
2018-11-14T13:25:16.527Z,34.17
2018-11-14T13:27:46.664Z,41.43
2018-11-14T13:30:19.251Z,33.13
2018-11-14T13:32:48.915Z,27.20
2018-11-14T13:35:19.061Z,34.53
2018-11-14T13:37:48.754Z,28.93
2018-11-14T13:40:17.791Z,42.97
2018-11-14T13:42:47.083Z,43.87
2018-11-14T13:45:16.954Z,34.60
2018-11-14T13:47:46.128Z,36.97
2018-11-14T13:50:19.199Z,30.90
2018-11-14T13:52:47.893Z,34.67
2018-11-14T13:55:23.428Z,36.57
2018-11-14T13:57:53.061Z,34.93
2018-11-14T14:00:22.817Z,43.23
2018-11-14T14:02:52.825Z,27.50
2018-11-14T14:05:23.010Z,34.63
2018-11-14T14:07:51.839Z,31.43
2018-11-14T14:10:20.861Z,31.40
2018-11-14T14:12:51.090Z,31.67
2018-11-14T14:15:22.001Z,40.37
2018-11-14T14:17:51.242Z,32.40
2018-11-14T14:20:20.646Z,37.73
2018-11-14T14:22:49.462Z,34.40
2018-11-14T14:25:19.948Z,27.67
2018-11-14T14:27:48.949Z,28.17
2018-11-14T14:30:19.832Z,37.80
2018-11-14T14:32:49.301Z,30.97
2018-11-14T14:35:19.409Z,29.70
2018-11-14T14:37:48.277Z,32.97
2018-11-14T14:40:19.287Z,40.37
2018-11-14T14:42:48.407Z,39.57
2018-11-14T14:45:20.235Z,30.13
2018-11-14T14:47:49.255Z,31.80
2018-11-14T14:50:18.881Z,35.00
2018-11-14T14:52:47.820Z,30.27
2018-11-14T14:55:20.259Z,34.13
2018-11-14T14:57:49.785Z,27.33
2018-11-14T15:00:26.057Z,32.50
2018-11-14T15:02:55.003Z,40.27
2018-11-14T15:05:24.052Z,33.97
2018-11-14T15:07:53.244Z,32.30
2018-11-14T15:10:23.442Z,42.70
2018-11-14T15:12:52.381Z,38.63
2018-11-14T15:15:21.697Z,36.93
2018-11-14T15:17:50.527Z,37.63
2018-11-14T15:20:21.183Z,32.63
2018-11-14T15:22:49.977Z,36.43
2018-11-14T15:25:20.521Z,30.30
2018-11-14T15:27:49.870Z,47.17
2018-11-14T15:30:27.102Z,42.47
2018-11-14T15:32:55.986Z,36.97
2018-11-14T15:35:24.894Z,41.13
2018-11-14T15:37:53.730Z,39.97
2018-11-14T15:40:24.198Z,34.90
2018-11-14T15:42:53.615Z,39.90
2018-11-14T15:45:26.767Z,50.47
2018-11-14T15:47:55.652Z,37.13
2018-11-14T15:50:26.890Z,58.23
2018-11-14T15:52:56.567Z,36.83
2018-11-14T15:55:25.558Z,36.00
2018-11-14T15:57:54.494Z,34.80
2018-11-14T16:00:25.771Z,56.83
2018-11-14T16:02:56.869Z,39.93
2018-11-14T16:05:26.985Z,37.83
2018-11-14T16:07:57.029Z,47.03
2018-11-14T16:10:26.828Z,42.90
2018-11-14T16:12:55.681Z,40.87
2018-11-14T16:15:27.748Z,51.70
2018-11-14T16:17:56.557Z,45.10
2018-11-14T16:20:26.143Z,38.77
2018-11-14T16:22:55.479Z,43.60
2018-11-14T16:25:25.182Z,63.67
2018-11-14T16:27:55.546Z,45.07
2018-11-14T16:30:26.171Z,57.43
2018-11-14T16:32:56.307Z,48.33
2018-11-14T16:35:25.329Z,47.27
2018-11-14T16:37:54.219Z,42.90
2018-11-14T16:40:25.256Z,52.53
2018-11-14T16:42:55.285Z,48.53
2018-11-14T16:45:24.246Z,47.50
2018-11-14T16:47:53.280Z,56.87
2018-11-14T16:50:23.338Z,50.93
2018-11-14T16:52:52.521Z,51.07
2018-11-14T16:55:22.538Z,50.73
2018-11-14T16:57:52.321Z,70.53
2018-11-14T17:00:23.217Z,55.77
2018-11-14T17:02:52.077Z,65.57
2018-11-14T17:05:22.063Z,55.83
2018-11-14T17:07:50.941Z,45.27
2018-11-14T17:10:21.064Z,53.97
2018-11-14T17:12:51.108Z,53.33
2018-11-14T17:15:21.384Z,64.83
2018-11-14T17:17:50.320Z,54.90
2018-11-14T17:20:20.126Z,53.93
2018-11-14T17:22:49.956Z,64.87
2018-11-14T17:25:19.683Z,47.87
2018-11-14T17:27:49.347Z,57.20
2018-11-14T17:30:20.572Z,56.60
2018-11-14T17:32:49.712Z,56.80
2018-11-14T17:35:19.887Z,60.80
2018-11-14T17:37:49.100Z,57.50
2018-11-14T17:40:22.151Z,49.70
2018-11-14T17:42:51.853Z,53.97
2018-11-14T17:45:23.719Z,67.40
2018-11-14T17:47:53.131Z,64.33
2018-11-14T17:50:24.267Z,59.73
2018-11-14T17:52:53.869Z,65.20
2018-11-14T17:55:23.352Z,60.67
2018-11-14T17:57:52.352Z,59.80
2018-11-14T18:00:24.593Z,62.13
2018-11-14T18:02:54.642Z,59.33
2018-11-14T18:05:25.283Z,52.73
2018-11-14T18:07:54.900Z,54.60
2018-11-14T18:10:25.160Z,71.43
2018-11-14T18:12:54.969Z,57.83
2018-11-14T18:15:23.793Z,66.33
2018-11-14T18:17:53.630Z,56.70
2018-11-14T18:20:23.950Z,56.40
2018-11-14T18:22:53.245Z,53.43
2018-11-14T18:25:22.071Z,58.63
2018-11-14T18:27:51.006Z,72.23
2018-11-14T18:30:21.818Z,61.17
2018-11-14T18:32:51.249Z,64.63
2018-11-14T18:35:20.941Z,68.20
2018-11-14T18:37:50.644Z,54.90
2018-11-14T18:40:20.873Z,53.80
2018-11-14T18:42:50.029Z,48.97
2018-11-14T18:45:25.329Z,65.57
2018-11-14T18:47:54.985Z,57.03
2018-11-14T18:50:24.873Z,72.60
2018-11-14T18:52:54.077Z,53.83
2018-11-14T18:55:24.508Z,57.70
2018-11-14T18:57:53.821Z,48.90
2018-11-14T19:00:27.912Z,59.77
2018-11-14T19:02:57.170Z,60.83
2018-11-14T19:05:26.663Z,52.30
2018-11-14T19:07:55.791Z,61.30
2018-11-14T19:10:27.643Z,61.87
2018-11-14T19:12:58.256Z,59.23
2018-11-14T19:15:29.198Z,55.97
2018-11-14T19:17:58.454Z,52.20
2018-11-14T19:20:29.576Z,49.93
2018-11-14T19:22:59.441Z,48.77
2018-11-14T19:25:30.657Z,51.23
2018-11-14T19:27:59.920Z,56.20
2018-11-14T19:30:30.428Z,57.00
2018-11-14T19:33:00.189Z,63.37
2018-11-14T19:35:29.272Z,49.47
2018-11-14T19:37:58.646Z,52.53
2018-11-14T19:40:30.973Z,59.77
2018-11-14T19:43:01.577Z,50.30
2018-11-14T19:45:36.827Z,56.40
2018-11-14T19:48:07.177Z,52.37
2018-11-14T19:50:36.857Z,60.97
2018-11-14T19:53:06.277Z,60.73
2018-11-14T19:55:36.587Z,55.97
2018-11-14T19:58:06.235Z,53.97
2018-11-14T20:00:37.276Z,51.37
2018-11-14T20:03:07.232Z,61.77
2018-11-14T20:05:36.374Z,54.40
2018-11-14T20:08:05.977Z,51.67
2018-11-14T20:10:35.373Z,56.93
2018-11-14T20:13:04.427Z,46.20
2018-11-14T20:15:35.506Z,57.77
2018-11-14T20:18:04.679Z,53.73
2018-11-14T20:20:36.641Z,59.60
2018-11-14T20:23:06.204Z,55.17
2018-11-14T20:25:35.847Z,53.23
2018-11-14T20:28:05.308Z,68.73
2018-11-14T20:30:36.178Z,51.50
2018-11-14T20:33:07.522Z,54.47
2018-11-14T20:35:36.571Z,47.70
2018-11-14T20:38:06.018Z,55.20
2018-11-14T20:40:37.361Z,56.60
2018-11-14T20:43:07.415Z,44.63
2018-11-14T20:45:36.388Z,62.27
2018-11-14T20:48:05.366Z,59.30
2018-11-14T20:50:34.262Z,69.10
2018-11-14T20:53:04.510Z,56.97
2018-11-14T20:55:34.513Z,52.33
2018-11-14T20:58:03.990Z,48.57
2018-11-14T21:00:34.443Z,48.37
2018-11-14T21:03:03.785Z,43.10
2018-11-14T21:05:32.930Z,50.97
2018-11-14T21:08:02.892Z,51.53
2018-11-14T21:10:33.048Z,50.23
2018-11-14T21:13:02.754Z,50.80
2018-11-14T21:15:34.033Z,52.13
2018-11-14T21:18:03.629Z,49.17
2018-11-14T21:20:32.509Z,51.60
2018-11-14T21:23:01.581Z,51.37
2018-11-14T21:25:30.894Z,52.80
2018-11-14T21:27:59.874Z,55.50
2018-11-14T21:30:29.907Z,44.00
2018-11-14T21:32:58.784Z,47.17
2018-11-14T21:35:30.867Z,48.53
2018-11-14T21:38:00.841Z,51.87
2018-11-14T21:40:29.680Z,42.40
2018-11-14T21:42:58.683Z,47.87
2018-11-14T21:45:28.265Z,45.67
2018-11-14T21:48:02.268Z,53.33
2018-11-14T21:50:31.869Z,43.23
2018-11-14T21:53:00.768Z,50.80
2018-11-14T21:55:29.548Z,44.20
2018-11-14T21:57:58.318Z,45.47
2018-11-14T22:00:33.324Z,50.73
2018-11-14T22:03:02.473Z,44.17
2018-11-14T22:05:31.658Z,39.97
2018-11-14T22:08:00.530Z,43.00
2018-11-14T22:10:29.374Z,45.60
2018-11-14T22:12:58.172Z,41.60
2018-11-14T22:15:28.276Z,42.30
2018-11-14T22:17:57.442Z,42.07
2018-11-14T22:20:27.349Z,43.53
2018-11-14T22:22:56.566Z,37.97
2018-11-14T22:25:27.335Z,44.63
2018-11-14T22:27:56.287Z,40.30
2018-11-14T22:30:30.031Z,49.97
2018-11-14T22:32:58.970Z,41.50
2018-11-14T22:35:29.258Z,43.83
2018-11-14T22:37:58.706Z,47.10
2018-11-14T22:40:29.031Z,57.63
2018-11-14T22:42:57.784Z,51.60
2018-11-14T22:45:27.897Z,47.30
2018-11-14T22:47:56.642Z,45.70
2018-11-14T22:50:25.955Z,47.53
2018-11-14T22:52:54.854Z,43.17
2018-11-14T22:55:24.720Z,45.50
2018-11-14T22:57:54.008Z,44.53
2018-11-14T23:00:28.504Z,45.07
2018-11-14T23:02:59.469Z,39.90
2018-11-14T23:05:28.428Z,42.40
2018-11-14T23:07:57.994Z,40.43
2018-11-14T23:10:27.395Z,46.33
2018-11-14T23:12:56.203Z,42.17
2018-11-14T23:15:25.418Z,46.73
2018-11-14T23:17:54.283Z,44.13
2018-11-14T23:20:23.367Z,49.07
2018-11-14T23:22:53.104Z,41.50
2018-11-14T23:25:22.430Z,49.90
2018-11-14T23:27:52.818Z,44.33
2018-11-14T23:30:22.867Z,41.57
2018-11-14T23:32:52.618Z,33.97
2018-11-14T23:35:25.591Z,51.27
2018-11-14T23:37:55.726Z,35.80
2018-11-14T23:40:24.640Z,51.87
2018-11-14T23:42:53.494Z,45.70
2018-11-14T23:45:23.124Z,46.87
2018-11-14T23:47:52.250Z,40.40
2018-11-14T23:50:23.038Z,41.73
2018-11-14T23:52:53.198Z,44.23
2018-11-14T23:55:23.201Z,40.60
2018-11-14T23:57:52.083Z,40.27
